createdAt,value
2018-06-05T00:01:27.442Z,16.52
2018-06-05T00:03:56.182Z,16.50
2018-06-05T00:06:24.995Z,16.49
2018-06-05T00:08:53.787Z,16.46
2018-06-05T00:11:22.556Z,16.45
2018-06-05T00:13:51.329Z,16.41
2018-06-05T00:16:20.089Z,16.39
2018-06-05T00:18:48.952Z,16.35
2018-06-05T00:21:17.706Z,16.32
2018-06-05T00:23:46.461Z,16.31
2018-06-05T00:26:15.212Z,16.27
2018-06-05T00:28:43.985Z,16.27
2018-06-05T00:31:12.755Z,16.26
2018-06-05T00:33:41.504Z,16.23
2018-06-05T00:36:10.293Z,16.20
2018-06-05T00:38:39.036Z,16.16
2018-06-05T00:41:07.850Z,16.10
2018-06-05T00:43:36.583Z,16.07
2018-06-05T00:46:05.330Z,16.00
2018-06-05T00:48:34.079Z,16.02
2018-06-05T00:51:09.236Z,15.99
2018-06-05T00:53:38.006Z,16.00
2018-06-05T00:56:06.757Z,16.00
2018-06-05T00:58:35.526Z,16.02
2018-06-05T01:01:04.295Z,15.97
2018-06-05T01:03:33.104Z,15.95
2018-06-05T01:06:01.881Z,15.90
2018-06-05T01:08:30.667Z,15.88
2018-06-05T01:10:59.454Z,15.87
2018-06-05T01:13:28.219Z,15.82
2018-06-05T01:15:56.991Z,15.77
2018-06-05T01:18:25.761Z,15.73
2018-06-05T01:20:54.543Z,15.77
2018-06-05T01:23:23.297Z,15.76
2018-06-05T01:25:52.132Z,15.77
2018-06-05T01:28:20.876Z,15.79
2018-06-05T01:30:49.617Z,15.77
2018-06-05T01:33:18.401Z,15.73
2018-06-05T01:35:47.151Z,15.72
2018-06-05T01:38:15.915Z,15.68
2018-06-05T01:40:44.671Z,15.62
2018-06-05T01:43:13.422Z,15.55
2018-06-05T01:45:42.201Z,15.54
2018-06-05T01:48:11.025Z,15.52
2018-06-05T01:50:39.842Z,15.51
2018-06-05T01:53:08.579Z,15.46
2018-06-05T01:55:37.337Z,15.47
2018-06-05T01:58:06.100Z,15.46
2018-06-05T02:00:34.859Z,15.46
2018-06-05T02:03:03.596Z,15.45
2018-06-05T02:05:32.350Z,15.47
2018-06-05T02:08:01.156Z,15.45
2018-06-05T02:10:30.054Z,15.44
2018-06-05T02:12:58.812Z,15.40
2018-06-05T02:15:27.598Z,15.34
2018-06-05T02:17:56.384Z,15.38
2018-06-05T02:20:25.154Z,15.36
2018-06-05T02:22:53.910Z,15.37
2018-06-05T02:25:22.663Z,15.38
2018-06-05T02:27:51.425Z,15.37
2018-06-05T02:30:20.178Z,15.36
2018-06-05T02:32:49.064Z,15.36
2018-06-05T02:35:17.854Z,15.36
2018-06-05T02:37:46.684Z,15.35
2018-06-05T02:40:15.439Z,15.29
2018-06-05T02:42:44.211Z,15.33
2018-06-05T02:45:13.004Z,15.32
2018-06-05T02:47:41.768Z,15.31
2018-06-05T02:50:10.561Z,15.37
2018-06-05T02:52:39.331Z,15.39
2018-06-05T02:55:08.171Z,15.40
2018-06-05T02:57:36.957Z,15.42
2018-06-05T03:00:06.075Z,15.48
2018-06-05T03:02:34.836Z,15.52
2018-06-05T03:05:03.622Z,15.56
2018-06-05T03:07:32.357Z,15.58
2018-06-05T03:10:01.097Z,15.61
2018-06-05T03:12:29.876Z,15.63
2018-06-05T03:14:58.707Z,15.69
2018-06-05T03:17:27.535Z,15.77
2018-06-05T03:19:56.380Z,15.84
2018-06-05T03:22:25.128Z,15.94
2018-06-05T03:24:53.889Z,16.34
2018-06-05T03:27:22.659Z,16.67
2018-06-05T03:29:51.415Z,16.86
2018-06-05T03:32:20.283Z,16.99
2018-06-05T03:34:49.103Z,17.14
2018-06-05T03:37:17.872Z,17.64
2018-06-05T03:39:46.669Z,18.82
2018-06-05T03:42:15.423Z,20.31
2018-06-05T03:44:44.212Z,21.65
2018-06-05T03:47:13.000Z,22.94
2018-06-05T03:49:42.127Z,24.29
2018-06-05T03:52:11.380Z,25.33
2018-06-05T03:54:40.136Z,26.41
2018-06-05T03:57:08.944Z,27.30
2018-06-05T03:59:37.695Z,27.90
2018-06-05T04:02:06.509Z,28.67
2018-06-05T04:04:35.247Z,29.52
2018-06-05T04:07:04.018Z,29.04
2018-06-05T04:09:32.812Z,28.80
2018-06-05T04:12:01.559Z,29.30
2018-06-05T04:14:30.334Z,29.81
2018-06-05T04:16:59.178Z,30.02
2018-06-05T04:19:27.912Z,30.82
2018-06-05T04:21:56.736Z,32.04
2018-06-05T04:24:26.091Z,32.69
2018-06-05T04:26:54.865Z,33.38
2018-06-05T04:29:23.640Z,34.12
2018-06-05T04:31:52.421Z,35.03
2018-06-05T04:34:21.189Z,35.17
2018-06-05T04:36:50.031Z,35.14
2018-06-05T04:39:18.814Z,34.38
2018-06-05T04:41:47.572Z,33.77
2018-06-05T04:44:16.371Z,32.75
2018-06-05T04:46:45.237Z,32.63
2018-06-05T04:49:14.042Z,32.75
2018-06-05T04:51:42.961Z,33.79
2018-06-05T04:54:11.731Z,33.27
2018-06-05T04:56:40.498Z,34.87
2018-06-05T04:59:09.262Z,35.24
2018-06-05T05:01:38.014Z,35.53
2018-06-05T05:04:06.769Z,35.85
2018-06-05T05:06:35.513Z,36.32
2018-06-05T05:09:05.116Z,37.06
2018-06-05T05:11:33.874Z,37.09
2018-06-05T05:14:02.679Z,37.18
2018-06-05T05:16:31.511Z,35.65
2018-06-05T05:19:00.326Z,35.05
2018-06-05T05:21:29.084Z,34.17
2018-06-05T05:23:57.858Z,33.64
2018-06-05T05:26:26.654Z,32.73
2018-06-05T05:28:55.410Z,31.89
2018-06-05T05:31:24.255Z,31.76
2018-06-05T05:33:53.027Z,30.78
2018-06-05T05:36:21.779Z,30.68
2018-06-05T05:38:50.547Z,30.73
2018-06-05T05:41:19.337Z,30.66
2018-06-05T05:43:48.160Z,30.69
2018-06-05T05:46:16.942Z,30.67
2018-06-05T05:48:45.708Z,30.83
2018-06-05T05:51:14.482Z,30.44
2018-06-05T05:53:43.253Z,30.17
2018-06-05T05:56:12.063Z,29.95
2018-06-05T05:58:40.904Z,30.08
2018-06-05T06:01:09.679Z,30.13
2018-06-05T06:03:38.450Z,29.88
2018-06-05T06:06:07.203Z,29.99
2018-06-05T06:08:35.939Z,30.10
2018-06-05T06:11:04.722Z,30.36
2018-06-05T06:13:33.575Z,30.57
2018-06-05T06:16:02.390Z,30.85
2018-06-05T06:18:31.143Z,30.89
2018-06-05T06:21:00.002Z,30.66
2018-06-05T06:23:28.767Z,30.51
2018-06-05T06:25:57.573Z,30.40
2018-06-05T06:28:26.352Z,30.28
2018-06-05T06:30:55.140Z,30.37
2018-06-05T06:33:23.924Z,30.16
2018-06-05T06:35:52.709Z,30.22
2018-06-05T06:38:21.591Z,30.37
2018-06-05T06:40:51.400Z,30.37
2018-06-05T06:43:20.190Z,30.34
2018-06-05T06:45:49.485Z,30.33
2018-06-05T06:48:18.233Z,30.26
2018-06-05T06:50:47.265Z,30.27
2018-06-05T06:53:16.085Z,29.87
2018-06-05T06:55:44.858Z,30.02
2018-06-05T06:58:13.629Z,30.08
2018-06-05T07:00:42.455Z,30.53
2018-06-05T07:03:11.258Z,30.25
2018-06-05T07:05:40.031Z,29.97
2018-06-05T07:08:08.774Z,30.11
2018-06-05T07:10:37.548Z,30.35
2018-06-05T07:13:06.334Z,30.22
2018-06-05T07:15:35.124Z,30.25
2018-06-05T07:18:03.915Z,30.34
2018-06-05T07:20:32.684Z,30.41
2018-06-05T07:23:01.562Z,30.44
2018-06-05T07:25:30.361Z,30.01
2018-06-05T07:27:59.150Z,29.87
2018-06-05T07:30:27.911Z,29.65
2018-06-05T07:32:56.692Z,29.27
2018-06-05T07:35:25.507Z,29.31
2018-06-05T07:37:54.294Z,29.49
2018-06-05T07:40:23.059Z,29.83
2018-06-05T07:42:51.824Z,29.87
2018-06-05T07:45:20.687Z,30.18
2018-06-05T07:47:49.464Z,30.50
2018-06-05T07:50:18.328Z,30.69
2018-06-05T07:52:47.103Z,30.85
2018-06-05T07:55:15.915Z,30.65
2018-06-05T07:57:44.653Z,30.71
2018-06-05T08:00:13.398Z,30.39
2018-06-05T08:02:42.172Z,30.29
2018-06-05T08:05:10.944Z,30.54
2018-06-05T08:07:39.770Z,30.37
2018-06-05T08:10:08.548Z,30.13
2018-06-05T08:12:37.326Z,29.70
2018-06-05T08:15:06.339Z,29.74
2018-06-05T08:17:35.113Z,29.91
2018-06-05T08:20:04.010Z,30.18
2018-06-05T08:22:42.506Z,29.96
2018-06-05T08:25:11.295Z,29.70
2018-06-05T08:27:40.168Z,29.32
2018-06-05T08:30:09.008Z,28.71
2018-06-05T08:32:37.826Z,28.35
2018-06-05T08:35:06.643Z,28.17
2018-06-05T08:37:35.442Z,27.98
2018-06-05T08:40:04.291Z,27.55
2018-06-05T08:42:33.044Z,27.44
2018-06-05T08:45:01.884Z,27.38
2018-06-05T08:47:30.635Z,27.12
2018-06-05T08:49:59.416Z,26.95
2018-06-05T08:52:28.190Z,26.68
2018-06-05T08:54:56.977Z,26.83
2018-06-05T08:57:25.753Z,26.86
2018-06-05T08:59:54.562Z,26.96
2018-06-05T09:02:23.375Z,26.99
2018-06-05T09:04:52.139Z,27.00
2018-06-05T09:07:20.893Z,27.45
2018-06-05T09:09:49.668Z,27.92
2018-06-05T09:12:18.530Z,28.35
2018-06-05T09:14:47.322Z,28.69
2018-06-05T09:17:16.073Z,28.89
2018-06-05T09:19:44.920Z,28.83
2018-06-05T09:22:13.684Z,29.10
2018-06-05T09:24:42.451Z,29.19
2018-06-05T09:27:11.205Z,29.35
2018-06-05T09:29:39.959Z,29.43
2018-06-05T09:32:08.726Z,29.53
2018-06-05T09:34:37.539Z,29.33
2018-06-05T09:37:06.318Z,29.26
2018-06-05T09:39:35.064Z,29.24
2018-06-05T09:42:03.915Z,29.27
2018-06-05T09:44:32.677Z,29.06
2018-06-05T09:47:01.431Z,28.86
2018-06-05T09:49:30.206Z,28.70
2018-06-05T09:51:58.984Z,28.79
2018-06-05T09:54:27.799Z,28.90
2018-06-05T09:56:56.684Z,29.02
2018-06-05T09:59:25.454Z,29.07
2018-06-05T10:01:54.223Z,29.30
2018-06-05T10:04:23.067Z,29.56
2018-06-05T10:06:51.824Z,29.65
2018-06-05T10:09:20.588Z,29.89
2018-06-05T10:11:49.348Z,29.78
2018-06-05T10:14:18.200Z,29.53
2018-06-05T10:16:46.958Z,29.65
2018-06-05T10:19:15.754Z,29.79
2018-06-05T10:21:44.566Z,29.63
2018-06-05T10:24:13.308Z,29.76
2018-06-05T10:26:42.075Z,29.33
2018-06-05T10:29:10.836Z,29.42
2018-06-05T10:31:39.604Z,29.57
2018-06-05T10:34:08.418Z,29.27
2018-06-05T10:36:37.191Z,28.99
2018-06-05T10:39:07.830Z,29.21
2018-06-05T10:41:36.647Z,29.29
2018-06-05T10:44:05.424Z,29.72
2018-06-05T10:46:34.187Z,30.06
2018-06-05T10:49:03.009Z,30.15
2018-06-05T10:51:31.775Z,30.06
2018-06-05T10:54:00.538Z,30.12
2018-06-05T10:56:29.337Z,30.24
2018-06-05T10:58:58.200Z,30.30
2018-06-05T11:01:26.994Z,30.12
2018-06-05T11:03:55.816Z,30.08
2018-06-05T11:06:24.607Z,29.73
2018-06-05T11:08:53.427Z,29.48
2018-06-05T11:11:22.202Z,29.39
2018-06-05T11:13:50.997Z,29.13
2018-06-05T11:16:19.758Z,29.01
2018-06-05T11:18:48.527Z,28.69
2018-06-05T11:21:17.305Z,28.43
2018-06-05T11:23:46.153Z,28.16
2018-06-05T11:26:14.982Z,28.13
2018-06-05T11:28:43.730Z,28.11
2018-06-05T11:31:12.474Z,28.03
2018-06-05T11:33:41.264Z,27.94
2018-06-05T11:36:10.039Z,27.98
2018-06-05T11:38:38.816Z,28.03
2018-06-05T11:41:07.581Z,28.05
2018-06-05T11:43:36.365Z,27.99
2018-06-05T11:46:05.353Z,27.96
2018-06-05T11:48:34.151Z,27.88
2018-06-05T11:51:02.943Z,27.82
2018-06-05T11:53:31.727Z,27.80
2018-06-05T11:56:00.461Z,27.82
2018-06-05T11:58:29.261Z,27.84
2018-06-05T12:00:58.057Z,27.97
2018-06-05T12:03:26.800Z,28.05
2018-06-05T12:05:55.622Z,28.02
2018-06-05T12:08:24.388Z,28.29
2018-06-05T12:10:53.187Z,28.49
2018-06-05T12:13:21.933Z,28.49
2018-06-05T12:15:50.713Z,28.38
2018-06-05T12:18:19.486Z,28.26
2018-06-05T12:20:48.248Z,28.21
2018-06-05T12:23:17.030Z,28.13
2018-06-05T12:25:45.855Z,28.17
2018-06-05T12:28:14.644Z,28.31
2018-06-05T12:30:43.425Z,28.64
2018-06-05T12:33:12.225Z,28.78
2018-06-05T12:35:40.982Z,28.79
2018-06-05T12:38:09.782Z,28.71
2018-06-05T12:40:38.556Z,29.09
2018-06-05T12:43:07.671Z,29.41
2018-06-05T12:45:36.408Z,29.45
2018-06-05T12:48:05.416Z,29.30
2018-06-05T12:50:34.184Z,29.15
2018-06-05T12:53:03.007Z,29.20
2018-06-05T12:55:31.885Z,29.15
2018-06-05T12:58:00.722Z,28.90
2018-06-05T13:00:29.533Z,28.96
2018-06-05T13:02:58.355Z,28.91
2018-06-05T13:05:27.211Z,28.91
2018-06-05T13:07:55.967Z,28.95
2018-06-05T13:10:24.723Z,28.85
2018-06-05T13:12:53.491Z,28.64
2018-06-05T13:15:22.294Z,28.45
2018-06-05T13:17:51.164Z,28.34
2018-06-05T13:20:19.933Z,28.30
2018-06-05T13:22:48.816Z,28.18
2018-06-05T13:25:17.585Z,28.05
2018-06-05T13:27:46.379Z,27.92
2018-06-05T13:30:15.178Z,27.99
2018-06-05T13:32:44.014Z,28.11
2018-06-05T13:35:12.801Z,27.98
2018-06-05T13:37:41.590Z,28.17
2018-06-05T13:40:10.465Z,27.87
2018-06-05T13:42:39.279Z,28.06
2018-06-05T13:45:08.038Z,28.04
2018-06-05T13:47:36.782Z,27.81
2018-06-05T13:50:05.598Z,27.82
2018-06-05T13:52:34.421Z,27.85
2018-06-05T13:55:03.215Z,27.94
2018-06-05T13:57:32.013Z,27.78
2018-06-05T14:00:00.775Z,28.00
2018-06-05T14:02:29.656Z,28.33
2018-06-05T14:04:58.438Z,28.25
2018-06-05T14:07:27.240Z,28.16
2018-06-05T14:09:56.015Z,28.15
2018-06-05T14:12:24.796Z,28.20
2018-06-05T14:14:53.557Z,28.30
2018-06-05T14:17:22.424Z,28.31
2018-06-05T14:19:51.194Z,28.53
2018-06-05T14:22:19.968Z,28.74
2018-06-05T14:24:48.879Z,28.90
2018-06-05T14:27:17.647Z,29.04
2018-06-05T14:29:46.417Z,29.04
2018-06-05T14:32:15.174Z,29.25
2018-06-05T14:34:43.943Z,29.49
2018-06-05T14:37:12.705Z,29.63
2018-06-05T14:39:41.470Z,29.61
2018-06-05T14:42:10.257Z,29.54
2018-06-05T14:44:39.015Z,29.39
2018-06-05T14:47:07.891Z,29.47
2018-06-05T14:49:36.666Z,29.65
2018-06-05T14:52:05.476Z,29.89
2018-06-05T14:54:34.246Z,29.63
2018-06-05T14:57:03.027Z,29.28
2018-06-05T14:59:31.821Z,29.00
2018-06-05T15:02:00.599Z,28.44
2018-06-05T15:04:29.405Z,27.86
2018-06-05T15:06:58.187Z,27.57
2018-06-05T15:09:27.030Z,27.54
2018-06-05T15:11:55.795Z,27.44
2018-06-05T15:14:24.575Z,27.48
2018-06-05T15:16:53.360Z,27.33
2018-06-05T15:19:22.166Z,27.27
2018-06-05T15:21:50.947Z,27.39
2018-06-05T15:24:19.735Z,27.29
2018-06-05T15:26:48.518Z,26.94
2018-06-05T15:29:17.292Z,26.90
2018-06-05T15:31:46.128Z,27.00
2018-06-05T15:34:14.955Z,26.96
2018-06-05T15:36:43.739Z,26.90
2018-06-05T15:39:12.568Z,26.90
2018-06-05T15:41:41.392Z,26.78
2018-06-05T15:44:10.198Z,26.78
2018-06-05T15:46:38.999Z,26.82
2018-06-05T15:49:07.837Z,26.69
2018-06-05T15:51:36.610Z,26.66
2018-06-05T15:54:05.662Z,26.68
2018-06-05T15:56:34.618Z,26.77
2018-06-05T15:59:03.415Z,26.92
2018-06-05T16:01:32.166Z,26.96
2018-06-05T16:04:00.952Z,26.89
2018-06-05T16:06:30.084Z,26.77
2018-06-05T16:08:58.852Z,26.70
2018-06-05T16:11:27.667Z,26.72
2018-06-05T16:13:56.432Z,26.75
2018-06-05T16:16:25.245Z,26.80
2018-06-05T16:18:54.025Z,26.78
2018-06-05T16:21:22.790Z,26.83
2018-06-05T16:23:51.587Z,26.82
2018-06-05T16:26:20.431Z,26.77
2018-06-05T16:28:49.191Z,26.78
2018-06-05T16:31:17.958Z,26.77
2018-06-05T16:33:46.751Z,26.71
2018-06-05T16:36:15.566Z,26.57
2018-06-05T16:38:44.348Z,26.33
2018-06-05T16:41:13.143Z,26.20
2018-06-05T16:43:41.900Z,26.32
2018-06-05T16:46:10.763Z,26.29
2018-06-05T16:48:39.534Z,26.10
2018-06-05T16:51:08.352Z,26.08
2018-06-05T16:53:37.161Z,26.06
2018-06-05T16:56:05.956Z,26.02
2018-06-05T16:58:34.794Z,25.99
2018-06-05T17:01:03.586Z,25.94
2018-06-05T17:03:32.423Z,25.88
2018-06-05T17:06:01.197Z,25.79
2018-06-05T17:08:30.041Z,25.73
2018-06-05T17:10:58.804Z,25.62
2018-06-05T17:13:27.589Z,25.50
2018-06-05T17:15:56.402Z,25.39
2018-06-05T17:18:25.159Z,25.25
2018-06-05T17:20:53.964Z,25.11
2018-06-05T17:23:22.806Z,24.96
2018-06-05T17:25:51.598Z,24.84
2018-06-05T17:28:20.462Z,24.73
2018-06-05T17:30:49.488Z,24.62
2018-06-05T17:33:18.270Z,24.56
2018-06-05T17:35:47.073Z,24.49
2018-06-05T17:38:15.858Z,24.31
2018-06-05T17:40:44.682Z,24.19
2018-06-05T17:43:13.504Z,24.09
2018-06-05T17:45:42.353Z,23.98
2018-06-05T17:48:11.208Z,23.87
2018-06-05T17:50:40.042Z,23.75
2018-06-05T17:53:09.688Z,23.65
2018-06-05T17:55:38.455Z,23.55
2018-06-05T17:58:07.243Z,23.46
2018-06-05T18:00:36.059Z,23.33
2018-06-05T18:03:04.974Z,23.24
2018-06-05T18:05:33.827Z,23.15
2018-06-05T18:08:02.690Z,23.08
2018-06-05T18:10:31.458Z,23.00
2018-06-05T18:13:00.219Z,22.90
2018-06-05T18:15:29.035Z,22.86
2018-06-05T18:17:57.881Z,22.80
2018-06-05T18:20:26.733Z,22.71
2018-06-05T18:22:55.535Z,22.63
2018-06-05T18:25:24.330Z,22.44
2018-06-05T18:27:53.184Z,22.43
2018-06-05T18:30:22.139Z,22.35
2018-06-05T18:32:50.920Z,22.24
2018-06-05T18:35:19.740Z,22.14
2018-06-05T18:37:48.542Z,22.08
2018-06-05T18:40:17.357Z,21.93
2018-06-05T18:42:46.224Z,21.81
2018-06-05T18:45:15.060Z,21.72
2018-06-05T18:47:43.848Z,21.67
2018-06-05T18:50:12.705Z,21.63
2018-06-05T18:52:41.634Z,21.61
2018-06-05T18:55:10.394Z,21.47
2018-06-05T18:57:39.303Z,21.47
2018-06-05T19:00:08.438Z,21.43
2018-06-05T19:02:37.405Z,21.39
2018-06-05T19:05:06.371Z,21.30
2018-06-05T19:07:35.451Z,21.29
2018-06-05T19:10:04.455Z,21.24
2018-06-05T19:12:33.306Z,21.13
2018-06-05T19:15:02.236Z,21.05
2018-06-05T19:17:31.258Z,20.99
2018-06-05T19:20:00.054Z,20.92
2018-06-05T19:22:28.859Z,20.91
2018-06-05T19:24:57.730Z,20.90
2018-06-05T19:27:26.537Z,20.85
2018-06-05T19:29:55.385Z,20.80
2018-06-05T19:32:24.235Z,20.75
2018-06-05T19:34:53.166Z,20.68
2018-06-05T19:37:22.076Z,20.67
2018-06-05T19:39:50.951Z,20.62
2018-06-05T19:42:19.775Z,20.56
2018-06-05T19:44:48.592Z,20.50
2018-06-05T19:47:18.282Z,20.43
2018-06-05T19:49:47.049Z,20.39
2018-06-05T19:52:15.946Z,20.33
2018-06-05T19:54:44.757Z,20.27
2018-06-05T19:57:13.575Z,20.22
2018-06-05T19:59:42.409Z,20.17
2018-06-05T20:02:11.230Z,20.14
2018-06-05T20:04:40.120Z,20.09
2018-06-05T20:07:08.987Z,20.05
2018-06-05T20:09:37.890Z,20.02
2018-06-05T20:12:06.889Z,19.97
2018-06-05T20:14:35.693Z,19.93
2018-06-05T20:17:04.540Z,19.91
2018-06-05T20:19:33.340Z,19.85
2018-06-05T20:22:02.259Z,19.82
2018-06-05T20:24:31.130Z,19.79
2018-06-05T20:26:59.949Z,19.73
2018-06-05T20:29:28.772Z,19.72
2018-06-05T20:31:57.593Z,19.68
2018-06-05T20:34:26.396Z,19.66
2018-06-05T20:36:55.213Z,19.62
2018-06-05T20:39:23.998Z,19.55
2018-06-05T20:41:52.782Z,19.50
2018-06-05T20:44:21.686Z,19.46
2018-06-05T20:46:50.503Z,19.44
2018-06-05T20:49:19.353Z,19.40
2018-06-05T20:51:48.137Z,19.37
2018-06-05T20:54:16.944Z,19.34
2018-06-05T20:56:45.742Z,19.31
2018-06-05T20:59:14.524Z,19.28
2018-06-05T21:01:43.279Z,19.29
2018-06-05T21:04:12.052Z,19.24
2018-06-05T21:06:40.981Z,19.21
2018-06-05T21:09:09.764Z,19.15
2018-06-05T21:11:38.547Z,19.15
2018-06-05T21:14:07.295Z,19.12
2018-06-05T21:16:36.074Z,19.12
2018-06-05T21:19:05.023Z,19.10
2018-06-05T21:21:33.825Z,19.06
2018-06-05T21:24:02.677Z,19.04
2018-06-05T21:26:31.403Z,18.99
2018-06-05T21:29:00.212Z,18.90
2018-06-05T21:31:28.951Z,18.91
2018-06-05T21:33:57.743Z,18.90
2018-06-05T21:36:26.542Z,18.88
2018-06-05T21:38:55.335Z,18.84
2018-06-05T21:41:24.122Z,18.83
2018-06-05T21:43:52.890Z,18.81
2018-06-05T21:46:21.688Z,18.80
2018-06-05T21:48:50.455Z,18.78
2018-06-05T21:51:19.266Z,18.77
2018-06-05T21:53:48.012Z,18.75
2018-06-05T21:56:16.773Z,18.73
2018-06-05T21:58:45.522Z,18.70
2018-06-05T22:01:14.261Z,18.65
2018-06-05T22:03:43.008Z,18.60
2018-06-05T22:06:11.776Z,18.56
2018-06-05T22:08:40.531Z,18.49
2018-06-05T22:11:09.432Z,18.52
2018-06-05T22:13:38.299Z,18.47
2018-06-05T22:16:07.027Z,18.37
2018-06-05T22:18:35.807Z,18.31
2018-06-05T22:21:04.615Z,18.27
2018-06-05T22:23:33.391Z,18.25
2018-06-05T22:26:02.158Z,18.21
2018-06-05T22:28:30.919Z,18.19
2018-06-05T22:30:59.674Z,18.17
2018-06-05T22:33:28.456Z,18.17
2018-06-05T22:35:57.293Z,18.13
2018-06-05T22:38:26.137Z,18.07
2018-06-05T22:40:54.952Z,18.05
2018-06-05T22:43:23.717Z,18.03
2018-06-05T22:45:52.472Z,18.00
2018-06-05T22:48:21.220Z,17.97
2018-06-05T22:50:49.992Z,17.93
2018-06-05T22:53:18.767Z,17.92
2018-06-05T22:55:47.531Z,17.91
2018-06-05T22:58:16.373Z,17.90
2018-06-05T23:00:45.150Z,17.84
2018-06-05T23:03:13.927Z,17.80
2018-06-05T23:05:42.727Z,17.76
2018-06-05T23:08:11.492Z,17.72
2018-06-05T23:10:40.288Z,17.71
2018-06-05T23:13:09.092Z,17.68
2018-06-05T23:15:37.875Z,17.65
2018-06-05T23:18:06.646Z,17.61
2018-06-05T23:20:35.455Z,17.59
2018-06-05T23:23:04.215Z,17.54
2018-06-05T23:25:33.631Z,17.56
2018-06-05T23:28:02.375Z,17.51
2018-06-05T23:30:31.139Z,17.49
2018-06-05T23:32:59.942Z,17.45
2018-06-05T23:35:28.712Z,17.41
2018-06-05T23:37:57.480Z,17.39
2018-06-05T23:40:26.243Z,17.34
2018-06-05T23:42:55.102Z,17.34
2018-06-05T23:45:23.923Z,17.32
2018-06-05T23:47:52.678Z,17.29
2018-06-05T23:50:21.448Z,17.34
2018-06-05T23:52:50.208Z,17.33
2018-06-05T23:55:18.994Z,17.32
2018-06-05T23:57:47.726Z,17.33
